East Calais, Vermont
Current Conditions -  °F | °C
As of 2:51 AM on Wednesday 26 Nov 2014 (Local Time) from KMPV Reporting Station
Broken Clouds Broken Clouds  
Wind Chill: 26°   Ceiling: 3500
Heat Index: 35°   Visibility: 10mi
Dew Point: 23°   Wind: 13mph
Humidity: 61%   Direction: 310°NW
Pressure: 30.17"   Gusts: 22mph
Location:  44.37°N, 72.43°W
Report Text: KMPV 260751Z AUTO 31011G19KT 10SM BKN035 02/M05 A3017 RMK AO2 SLP230 T00171050
Loading
Personal Weather Stations






























Interactive Weather Map New forecast layout! Learn more

10-Day Weather Forecast

Advertisements
Track Severe Weather on mobile